Time;durP1;ratioP1;P1;durP2;ratioP2;P2;SDS_P1;SDS_P2;PMS_P1;PMS_P2;Temp;Humidity;BMP_temperature;BMP_pressure;BME280_temperature;BME280_humidity;BME280_pressure;Samples;Min_cycle;Max_cycle;Signal;HPM_P1;HPM_P2
2024/01/18 10:25:16;;;;;;;;;;;;;;;1.92;100.00;98287.47;1782764;79;20112;-71
2024/01/18 10:27:43;;;;;;;;;;;;;;;1.93;100.00;98282.71;1760963;79;20409;-72
2024/01/18 10:30:11;;;;;;;;;;;;;;;1.94;100.00;98286.94;1774628;79;20155;-71
2024/01/18 10:32:45;;;;;;;;;;;;;;;1.96;100.00;98291.55;1774553;79;20208;-73
2024/01/18 10:35:24;;;;;;;;;;;;;;;1.98;100.00;98285.88;1782022;80;20112;-72
2024/01/18 10:38:02;;;;;;;;;;;;;;;1.99;100.00;98269.58;1762256;79;20133;-74
2024/01/18 10:40:32;;;;;;;;;;;;;;;2.00;100.00;98264.79;1769276;79;20204;-69
2024/01/18 10:42:59;;;;;;;;;;;;;;;2.04;100.00;98259.05;1776996;79;20145;-67
2024/01/18 10:45:29;;;;;;;;;;;;;;;2.07;100.00;98255.05;1731349;81;20138;-64
2024/01/18 10:47:56;;;;;;;;;;;;;;;2.09;100.00;98250.67;1749455;82;20137;-71
2024/01/18 10:50:23;;;;;;;;;;;;;;;2.13;100.00;98244.48;1750725;82;20167;-66
2024/01/18 10:52:51;;;;;;;;;;;;;;;2.16;100.00;98239.19;1759626;81;20134;-66
2024/01/18 10:55:24;;;;;;;;;;;;;;;2.21;100.00;98240.24;1750814;81;20166;-65
2024/01/18 10:57:51;;;;;;;;;;;;;;;2.24;100.00;98235.78;1754499;81;20403;-67
2024/01/18 11:00:19;;;;;;;;;;;;;;;2.26;100.00;98235.25;1775595;80;20183;-66
2024/01/18 11:02:48;;;;;;;;;;;;;;;2.28;100.00;98218.48;1776237;79;20129;-69
2024/01/18 11:05:21;;;;;;;;;;;;;;;2.29;100.00;98225.28;1762519;79;20358;-68
2024/01/18 11:07:49;;;;;;;;;;;;;;;2.30;100.00;98218.78;1772724;81;20153;-72
2024/01/18 11:10:16;;;;;;;;;;;;;;;2.31;100.00;98217.05;1760497;80;20128;-72
2024/01/18 11:12:45;;;;;;;;;;;;;;;2.31;100.00;98206.31;1781302;79;20162;-69
2024/01/18 11:15:13;;;;;;;;;;;;;;;2.32;100.00;98211.00;1754523;80;20159;-68
2024/01/18 11:17:45;;;;;;;;;;;;;;;2.33;100.00;98202.39;1759373;79;20149;-74
2024/01/18 11:20:11;;;;;;;;;;;;;;;2.33;100.00;98204.95;1762920;79;20100;-71
2024/01/18 11:22:40;;;;;;;;;;;;;;;2.33;100.00;98191.66;1758547;80;20140;-73
2024/01/18 11:25:12;;;;;;;;;;;;;;;2.31;100.00;98188.34;1751325;82;20138;-73
2024/01/18 11:27:45;;;;;;;;;;;;;;;2.32;100.00;98189.17;1752083;82;20359;-72
2024/01/18 11:30:34;;;;;;;;;;;;;;;2.33;100.00;98172.85;1743197;82;20446;-68
2024/01/18 11:33:02;;;;;;;;;;;;;;;2.33;100.00;98172.39;1638326;85;20116;-71
2024/01/18 11:35:29;;;;;;;;;;;;;;;2.34;100.00;98161.22;1706940;81;20188;-67
2024/01/18 11:38:18;;;;;;;;;;;;;;;2.34;100.00;98164.23;1745318;82;20147;-65
2024/01/18 11:40:44;;;;;;;;;;;;;;;2.35;100.00;98167.18;1755518;82;20134;-66
2024/01/18 11:43:11;;;;;;;;;;;;;;;2.39;100.00;98170.42;1720006;82;20129;-67
2024/01/18 11:45:38;;;;;;;;;;;;;;;2.40;100.00;98170.30;1749858;80;20111;-71
2024/01/18 11:48:05;;;;;;;;;;;;;;;2.43;100.00;98175.28;1749629;80;20105;-71
2024/01/18 11:50:32;;;;;;;;;;;;;;;2.45;100.00;98169.61;1726186;83;20101;-68
2024/01/18 11:52:58;;;;;;;;;;;;;;;2.46;100.00;98170.44;1751544;82;21014;-67
2024/01/18 11:55:25;;;;;;;;;;;;;;;2.47;100.00;98163.11;1746546;81;20135;-73
2024/01/18 11:57:52;;;;;;;;;;;;;;;2.48;100.00;98166.05;1719480;82;20137;-72
2024/01/18 12:00:19;;;;;;;;;;;;;;;2.50;100.00;98165.52;1746488;81;20176;-67
2024/01/18 12:02:45;;;;;;;;;;;;;;;2.49;100.00;98169.83;1753925;81;20420;-69
2024/01/18 12:05:12;;;;;;;;;;;;;;;2.51;100.00;98160.75;1750820;82;20429;-68
2024/01/18 12:07:38;;;;;;;;;;;;;;;2.52;100.00;98163.24;1750265;80;20381;-70
2024/01/18 12:10:07;;;;;;;;;;;;;;;2.51;100.00;98164.16;1740281;82;20543;-74
2024/01/18 12:12:35;;;;;;;;;;;;;;;2.52;100.00;98163.70;1746623;82;20138;-71
2024/01/18 12:15:01;;;;;;;;;;;;;;;2.54;100.00;98156.28;1746146;82;20130;-78
2024/01/18 12:17:28;;;;;;;;;;;;;;;2.55;100.00;98155.38;1718584;82;20440;-74
2024/01/18 12:19:55;;;;;;;;;;;;;;;2.55;100.00;98154.09;1747921;80;20462;-76
2024/01/18 12:22:25;;;;;;;;;;;;;;;2.55;100.00;98150.23;1760580;80;20183;-77
2024/01/18 12:24:51;;;;;;;;;;;;;;;2.57;100.00;98162.55;1766535;81;20113;-66
